Time;durP1;ratioP1;P1;durP2;ratioP2;P2;SDS_P1;SDS_P2;PMS_P1;PMS_P2;Temp;Humidity;BMP_temperature;BMP_pressure;BME280_temperature;BME280_humidity;BME280_pressure;Samples;Min_cycle;Max_cycle;Signal;HPM_P1;HPM_P2
2022/10/27 00:02:07;;;;;;;4.10;2.50;;;16.40;99.90;;;;;;5039343;28;20299;-95
2022/10/27 00:04:33;;;;;;;2.73;2.00;;;16.40;99.90;;;;;;5037553;28;20978;-95
2022/10/27 00:07:01;;;;;;;3.93;2.83;;;16.30;99.90;;;;;;5023651;28;20428;-94
2022/10/27 00:09:30;;;;;;;5.00;3.17;;;16.30;99.90;;;;;;5024003;28;20401;-95
2022/10/27 00:11:56;;;;;;;3.80;2.13;;;16.30;99.90;;;;;;5035118;28;20898;-95
2022/10/27 00:14:22;;;;;;;2.67;2.07;;;16.30;99.90;;;;;;5023117;28;20433;-96
2022/10/27 00:16:55;;;;;;;2.93;2.33;;;16.30;99.90;;;;;;5039363;28;20465;-92
2022/10/27 00:19:23;;;;;;;4.53;2.60;;;16.30;99.90;;;;;;5039206;28;20426;-95
2022/10/27 00:21:50;;;;;;;4.20;2.63;;;16.30;99.90;;;;;;5057735;28;20417;-95
2022/10/27 00:24:17;;;;;;;3.30;2.13;;;16.30;99.90;;;;;;4990185;28;20521;-95
2022/10/27 00:26:44;;;;;;;4.17;2.70;;;16.30;99.90;;;;;;5003527;28;20822;-95
2022/10/27 00:29:10;;;;;;;4.13;2.63;;;16.30;99.90;;;;;;5003382;28;20444;-95
2022/10/27 00:31:36;;;;;;;3.43;2.60;;;16.30;99.90;;;;;;5011237;28;20470;-94
2022/10/27 00:34:02;;;;;;;3.17;2.03;;;16.30;99.90;;;;;;5022857;28;20475;-95
2022/10/27 00:36:30;;;;;;;2.57;2.37;;;16.30;99.90;;;;;;5022969;28;20451;-95
2022/10/27 00:38:57;;;;;;;2.83;2.10;;;16.30;99.90;;;;;;5006801;28;20418;-96
2022/10/27 00:41:26;;;;;;;2.77;2.40;;;16.30;99.90;;;;;;5031110;28;20434;-95
2022/10/27 00:43:52;;;;;;;5.63;2.53;;;16.30;99.90;;;;;;5002976;28;20988;-96
2022/10/27 00:46:18;;;;;;;6.53;2.50;;;16.20;99.90;;;;;;5007776;28;20518;-96
2022/10/27 00:48:44;;;;;;;3.87;2.10;;;16.20;99.90;;;;;;5052433;28;20476;-96
2022/10/27 00:51:16;;;;;;;4.23;2.33;;;16.20;99.90;;;;;;4986838;28;20480;-95
2022/10/27 00:53:43;;;;;;;2.83;2.30;;;16.20;99.90;;;;;;5003376;28;20433;-96
2022/10/27 00:56:09;;;;;;;3.23;2.07;;;16.30;99.90;;;;;;5019225;28;20404;-95
2022/10/27 00:58:36;;;;;;;2.70;2.50;;;16.20;99.90;;;;;;5019056;28;20413;-95
2022/10/27 01:01:02;;;;;;;2.43;2.13;;;16.20;99.90;;;;;;5025319;28;20459;-96
2022/10/27 01:03:28;;;;;;;5.27;2.40;;;16.20;99.90;;;;;;5006144;28;20508;-94
2022/10/27 01:05:56;;;;;;;3.60;2.30;;;16.20;99.90;;;;;;5022476;28;20430;-94
2022/10/27 01:08:23;;;;;;;3.33;2.30;;;16.20;99.90;;;;;;5036624;28;20515;-95
2022/10/27 01:10:50;;;;;;;3.40;2.60;;;16.20;99.90;;;;;;5038914;28;20460;-94
2022/10/27 01:13:18;;;;;;;3.17;1.97;;;16.20;99.90;;;;;;4987224;28;20929;-95
2022/10/27 01:16:03;;;;;;;2.33;1.87;;;16.20;99.90;;;;;;5030435;28;20426;-94
2022/10/27 01:18:42;;;;;;;3.43;1.73;;;16.20;99.90;;;;;;5022319;28;20821;-95
2022/10/27 01:21:36;;;;;;;4.90;2.00;;;16.20;99.90;;;;;;5018799;28;20858;-96
2022/10/27 01:24:17;;;;;;;4.23;2.40;;;16.20;99.90;;;;;;4986913;28;20443;-95
2022/10/27 01:26:54;;;;;;;3.77;2.00;;;16.20;99.90;;;;;;5002578;28;20837;-93
2022/10/27 01:30:00;;;;;;;2.47;1.80;;;16.20;99.90;;;;;;5018937;28;20431;-95
2022/10/27 01:33:01;;;;;;;3.10;2.13;;;16.20;99.90;;;;;;5018803;28;20467;-95
2022/10/27 01:35:51;;;;;;;3.27;2.00;;;16.10;99.90;;;;;;5021442;28;20738;-95
2022/10/27 01:38:26;;;;;;;3.60;2.50;;;16.10;99.90;;;;;;5015469;28;20815;-95
2022/10/27 01:41:02;;;;;;;2.80;2.20;;;16.10;99.90;;;;;;5038233;28;20608;-96
2022/10/27 01:43:30;;;;;;;4.07;2.10;;;16.10;99.90;;;;;;5038418;28;20443;-95
2022/10/27 01:46:00;;;;;;;6.80;2.40;;;16.10;99.90;;;;;;5038771;28;20423;-96
2022/10/27 01:48:31;;;;;;;2.90;1.93;;;16.10;99.90;;;;;;5038235;28;20449;-93
2022/10/27 01:50:57;;;;;;;3.00;2.27;;;16.10;99.90;;;;;;5018180;28;20461;-96
2022/10/27 01:53:23;;;;;;;3.43;2.20;;;16.10;99.90;;;;;;5018642;28;20421;-94
2022/10/27 01:56:11;;;;;;;2.60;2.30;;;16.10;99.90;;;;;;5045069;28;20434;-95
2022/10/27 01:58:49;;;;;;;2.20;1.70;;;16.10;99.90;;;;;;5021621;28;20436;-94
2022/10/27 02:01:21;;;;;;;3.57;2.03;;;16.10;99.90;;;;;;5021630;28;20459;-95
2022/10/27 02:04:32;;;;;;;4.47;1.83;;;16.10;99.90;;;;;;5025096;28;20462;-95
2022/10/27 02:07:15;;;;;;;3.70;2.10;;;16.10;99.90;;;;;;5036963;28;20442;-95
2022/10/27 02:09:55;;;;;;;4.73;2.23;;;16.10;99.90;;;;;;5021667;28;20408;-96
2022/10/27 02:12:30;;;;;;;5.17;1.90;;;16.10;99.90;;;;;;5022156;28;20463;-95
2022/10/27 02:14:59;;;;;;;3.80;1.83;;;16.10;99.90;;;;;;5005298;28;20817;-94
2022/10/27 02:17:31;;;;;;;4.00;2.50;;;16.00;99.90;;;;;;5018122;28;20441;-96
2022/10/27 02:20:01;;;;;;;5.90;2.13;;;16.00;99.90;;;;;;5018158;28;20939;-95
2022/10/27 02:22:30;;;;;;;5.23;2.00;;;16.00;99.90;;;;;;5018334;28;20833;-94
2022/10/27 02:24:57;;;;;;;2.60;1.97;;;16.00;99.90;;;;;;5002231;28;20439;-96
2022/10/27 02:27:34;;;;;;;2.60;1.90;;;16.00;99.90;;;;;;5037235;28;20745;-95
2022/10/27 02:30:02;;;;;;;2.40;2.10;;;16.00;99.90;;;;;;5022046;28;20740;-95
2022/10/27 02:32:28;;;;;;;3.87;2.27;;;16.00;99.90;;;;;;5005559;28;20552;-95
2022/10/27 02:34:56;;;;;;;2.73;2.00;;;16.00;99.90;;;;;;5005849;28;20435;-95
2022/10/27 02:37:30;;;;;;;3.30;1.97;;;16.00;99.90;;;;;;5021711;28;20818;-95
2022/10/27 02:39:59;;;;;;;5.80;2.00;;;16.00;99.90;;;;;;5021967;28;20736;-94
2022/10/27 02:42:25;;;;;;;3.23;1.80;;;16.00;99.90;;;;;;5021694;28;20807;-95
2022/10/27 02:44:51;;;;;;;2.50;2.20;;;16.00;99.90;;;;;;5021455;28;20470;-95
2022/10/27 02:47:17;;;;;;;1.93;1.70;;;16.00;99.90;;;;;;5030541;28;20418;-95
2022/10/27 02:49:44;;;;;;;5.00;2.10;;;16.00;99.90;;;;;;5061460;28;20262;-95
2022/10/27 02:52:13;;;;;;;2.43;1.90;;;16.00;99.90;;;;;;5061479;28;20859;-96
2022/10/27 02:54:39;;;;;;;2.43;2.10;;;16.00;99.90;;;;;;5078732;28;20780;-95
2022/10/27 02:57:05;;;;;;;3.30;1.80;;;16.00;99.90;;;;;;5061524;28;20474;-96
2022/10/27 02:59:31;;;;;;;5.40;2.00;;;16.00;99.90;;;;;;5078444;28;20445;-96
2022/10/27 03:01:57;;;;;;;3.93;2.60;;;16.00;99.90;;;;;;5028126;28;20444;-96
2022/10/27 03:04:23;;;;;;;4.07;2.10;;;16.00;99.90;;;;;;5044290;28;20432;-95
2022/10/27 03:06:53;;;;;;;10.50;3.10;;;16.00;99.90;;;;;;5044101;28;20436;-95
2022/10/27 03:09:19;;;;;;;2.40;2.00;;;16.00;99.90;;;;;;5008034;28;20454;-95
2022/10/27 03:11:45;;;;;;;3.73;1.73;;;16.00;99.90;;;;;;5014575;28;20459;-96
2022/10/27 03:14:11;;;;;;;2.40;1.90;;;15.90;99.90;;;;;;5021239;28;20191;-95
2022/10/27 03:16:36;;;;;;;5.33;1.87;;;16.00;99.90;;;;;;5030100;28;20440;-95
2022/10/27 03:19:02;;;;;;;2.27;1.90;;;15.90;99.90;;;;;;5029685;28;20194;-95
2022/10/27 03:21:28;;;;;;;4.43;2.33;;;15.90;99.90;;;;;;5025299;28;20442;-95
2022/10/27 03:23:54;;;;;;;2.30;1.40;;;16.00;99.90;;;;;;5024726;28;20493;-94
2022/10/27 03:26:20;;;;;;;3.30;2.10;;;16.00;99.90;;;;;;5040662;28;20932;-95
2022/10/27 03:28:46;;;;;;;2.90;1.93;;;15.90;99.90;;;;;;5024223;28;20506;-95
2022/10/27 03:31:12;;;;;;;3.50;2.07;;;15.90;99.90;;;;;;5040577;28;20471;-95
2022/10/27 03:33:38;;;;;;;3.53;1.87;;;15.90;99.90;;;;;;5008069;28;20445;-95
2022/10/27 03:36:05;;;;;;;1.70;1.50;;;15.90;99.90;;;;;;5040791;28;20430;-95
2022/10/27 03:38:37;;;;;;;2.47;1.50;;;15.90;99.90;;;;;;5036207;28;20428;-95
2022/10/27 03:41:03;;;;;;;2.83;1.83;;;15.90;99.90;;;;;;5024305;28;20497;-95
2022/10/27 03:43:29;;;;;;;3.50;1.83;;;15.90;99.90;;;;;;5040436;28;20490;-96
2022/10/27 03:45:55;;;;;;;2.80;1.80;;;15.90;99.90;;;;;;5007441;28;20470;-95
2022/10/27 03:48:21;;;;;;;4.27;1.73;;;15.90;99.90;;;;;;5040197;28;20442;-95
2022/10/27 03:50:49;;;;;;;2.07;1.77;;;15.90;99.90;;;;;;5040093;28;20465;-95
2022/10/27 03:53:17;;;;;;;2.20;1.60;;;15.90;99.90;;;;;;5023864;28;20499;-96
2022/10/27 03:55:43;;;;;;;4.10;1.70;;;15.90;99.90;;;;;;5023527;28;20431;-96
2022/10/27 03:58:13;;;;;;;3.30;2.00;;;15.90;99.90;;;;;;5004172;28;20443;-94
2022/10/27 04:00:40;;;;;;;4.10;2.13;;;15.90;99.90;;;;;;5020157;28;20509;-95
2022/10/27 04:03:06;;;;;;;4.37;1.97;;;15.90;99.90;;;;;;5020499;28;20472;-96
2022/10/27 04:05:32;;;;;;;2.23;2.00;;;15.90;99.90;;;;;;5025926;28;20766;-95
2022/10/27 04:08:08;;;;;;;3.33;1.80;;;15.80;99.90;;;;;;5025714;28;20442;-95
2022/10/27 04:10:34;;;;;;;3.70;1.70;;;15.90;99.90;;;;;;5039745;28;20427;-95
2022/10/27 04:13:00;;;;;;;4.00;2.00;;;15.90;99.90;;;;;;5039646;28;20738;-94
2022/10/27 04:15:27;;;;;;;2.03;1.73;;;15.90;99.90;;;;;;5023207;28;20463;-95
2022/10/27 04:17:58;;;;;;;2.50;1.90;;;15.80;99.90;;;;;;5019874;28;20522;-95
2022/10/27 04:20:25;;;;;;;2.70;1.90;;;15.80;99.90;;;;;;5040152;28;20513;-94
2022/10/27 04:22:53;;;;;;;3.30;1.90;;;15.80;99.90;;;;;;5019072;28;20495;-95
2022/10/27 04:25:22;;;;;;;2.10;1.67;;;15.80;99.90;;;;;;5003870;28;20890;-95
2022/10/27 04:27:48;;;;;;;2.53;1.93;;;15.80;99.90;;;;;;5003253;28;20590;-95
2022/10/27 04:30:17;;;;;;;2.30;1.73;;;15.80;99.90;;;;;;5003698;28;20418;-95
2022/10/27 04:32:54;;;;;;;3.83;2.03;;;15.80;99.90;;;;;;5036101;28;20410;-95
2022/10/27 04:35:20;;;;;;;2.50;2.00;;;15.80;99.90;;;;;;5003385;28;20450;-95
2022/10/27 04:37:46;;;;;;;1.77;1.57;;;15.80;99.90;;;;;;5019705;28;20431;-95
2022/10/27 04:40:12;;;;;;;2.63;1.87;;;15.80;99.90;;;;;;5035839;28;21022;-94
2022/10/27 04:42:44;;;;;;;3.90;2.27;;;15.80;99.90;;;;;;5002980;28;20451;-95
2022/10/27 04:45:10;;;;;;;3.13;1.80;;;15.80;99.90;;;;;;4989574;28;22321;-95
2022/10/27 04:47:36;;;;;;;5.30;1.70;;;15.80;99.90;;;;;;5038950;28;20451;-94
2022/10/27 04:50:02;;;;;;;2.60;1.73;;;15.80;99.90;;;;;;5005486;28;20423;-94
2022/10/27 04:52:28;;;;;;;2.70;2.13;;;15.70;99.90;;;;;;5002732;28;20471;-96
2022/10/27 04:54:54;;;;;;;2.10;1.70;;;15.70;99.90;;;;;;5018973;28;20977;-95
2022/10/27 04:57:20;;;;;;;2.83;1.97;;;15.70;99.90;;;;;;4986661;28;20509;-95
2022/10/27 04:59:46;;;;;;;1.60;1.50;;;15.70;99.90;;;;;;5002827;28;20485;-95
2022/10/27 05:02:12;;;;;;;2.20;2.00;;;15.70;99.90;;;;;;5019536;28;20461;-94
2022/10/27 05:04:38;;;;;;;3.80;1.50;;;15.70;99.90;;;;;;5056097;28;20809;-94
2022/10/27 05:07:04;;;;;;;3.93;2.10;;;15.70;99.90;;;;;;5022687;28;20430;-95
2022/10/27 05:09:32;;;;;;;2.53;1.73;;;15.70;99.90;;;;;;5038700;28;20986;-95
2022/10/27 05:11:58;;;;;;;4.63;2.13;;;15.70;99.90;;;;;;5022070;28;20612;-95
2022/10/27 05:14:24;;;;;;;1.90;1.50;;;15.70;99.90;;;;;;5038397;28;20494;-96
2022/10/27 05:16:50;;;;;;;2.67;1.97;;;15.70;99.90;;;;;;5056227;28;20459;-96
2022/10/27 05:19:16;;;;;;;3.27;1.73;;;15.70;99.90;;;;;;5028523;28;20766;-96
2022/10/27 05:22:05;;;;;;;2.10;1.60;;;15.70;99.90;;;;;;5007924;28;20459;-95
2022/10/27 05:24:33;;;;;;;4.13;1.70;;;15.70;99.90;;;;;;5031471;28;20442;-94
2022/10/27 05:26:59;;;;;;;3.77;1.73;;;15.60;99.90;;;;;;5022160;28;20809;-95
2022/10/27 05:29:25;;;;;;;2.20;1.70;;;15.60;99.90;;;;;;5005504;28;20493;-95
2022/10/27 05:31:51;;;;;;;2.40;1.90;;;15.60;99.90;;;;;;5009422;28;20468;-96
2022/10/27 05:34:17;;;;;;;2.50;1.77;;;15.60;99.90;;;;;;5002528;28;20913;-94
2022/10/27 05:36:43;;;;;;;2.90;2.30;;;15.60;99.90;;;;;;4986356;28;20433;-95
2022/10/27 05:39:09;;;;;;;2.80;1.73;;;15.60;99.90;;;;;;5035344;28;20418;-95
2022/10/27 05:41:36;;;;;;;3.97;1.40;;;15.60;99.90;;;;;;4994251;28;20476;-96
2022/10/27 05:44:02;;;;;;;2.50;1.67;;;15.60;99.90;;;;;;4993046;28;20452;-92
2022/10/27 05:46:28;;;;;;;3.20;2.03;;;15.60;99.90;;;;;;5038357;28;20429;-95
2022/10/27 05:48:54;;;;;;;2.00;1.80;;;15.60;99.90;;;;;;5005079;28;20487;-96
2022/10/27 05:51:19;;;;;;;3.27;2.07;;;15.60;99.90;;;;;;5002459;28;20931;-96
2022/10/27 05:53:49;;;;;;;4.70;1.60;;;15.60;99.90;;;;;;4985944;28;20428;-96
2022/10/27 05:56:15;;;;;;;3.10;1.70;;;15.60;99.90;;;;;;5002119;28;20426;-95
2022/10/27 05:58:41;;;;;;;4.60;1.87;;;15.60;99.90;;;;;;4986140;28;20445;-95
2022/10/27 06:01:07;;;;;;;2.50;1.47;;;15.60;99.90;;;;;;4994603;28;20919;-93
2022/10/27 06:03:33;;;;;;;5.80;1.77;;;15.60;99.90;;;;;;5025769;28;20445;-96
2022/10/27 06:06:02;;;;;;;6.87;2.13;;;15.60;99.90;;;;;;5042282;28;20865;-95
2022/10/27 06:08:29;;;;;;;4.73;2.20;;;15.60;99.90;;;;;;5042125;28;20426;-95
2022/10/27 06:10:55;;;;;;;3.77;1.90;;;15.60;99.90;;;;;;5025635;28;20555;-93
2022/10/27 06:13:21;;;;;;;2.80;1.77;;;15.60;99.90;;;;;;5059221;28;20946;-96
2022/10/27 06:15:47;;;;;;;3.57;2.20;;;15.60;99.90;;;;;;5005792;28;20431;-95
2022/10/27 06:18:19;;;;;;;2.70;1.60;;;15.60;99.90;;;;;;5023074;28;20482;-95
2022/10/27 06:20:45;;;;;;;2.90;1.53;;;15.60;99.90;;;;;;5021936;28;20904;-94
2022/10/27 06:23:11;;;;;;;3.40;2.13;;;15.50;99.90;;;;;;5022035;28;20423;-95
2022/10/27 06:25:45;;;;;;;3.10;1.30;;;15.60;99.90;;;;;;5038414;28;20407;-95
2022/10/27 06:28:14;;;;;;;3.10;1.67;;;15.50;99.90;;;;;;5021730;28;20469;-95
2022/10/27 06:30:40;;;;;;;2.20;1.70;;;15.50;99.90;;;;;;5005539;28;20445;-93
2022/10/27 06:33:06;;;;;;;4.03;2.30;;;15.50;99.90;;;;;;5022412;28;20475;-96
2022/10/27 06:35:32;;;;;;;2.30;1.90;;;15.50;99.90;;;;;;5021889;28;20480;-95
2022/10/27 06:37:58;;;;;;;9.63;1.50;;;15.50;99.90;;;;;;5021272;28;20452;-95
2022/10/27 06:40:24;;;;;;;1.80;1.30;;;15.50;99.90;;;;;;5021189;28;20487;-95
2022/10/27 06:42:52;;;;;;;3.63;1.43;;;15.50;99.90;;;;;;5009028;28;21185;-96
2022/10/27 06:46:45;;;;;;;;;;;;;;;;;;;;;
2022/10/27 06:57:51;;;;;;;6.70;1.57;;;15.50;99.90;;;;;;4958837;28;20441;-95
2022/10/27 07:00:19;;;;;;;4.40;1.70;;;15.40;99.90;;;;;;4962073;28;20944;-96
2022/10/27 07:02:46;;;;;;;3.70;1.67;;;15.50;99.90;;;;;;4977453;28;20449;-92
2022/10/27 07:05:12;;;;;;;4.00;1.80;;;15.50;99.90;;;;;;4961568;29;20505;-93
2022/10/27 07:07:58;;;;;;;;;;;;;;;;;;;;;
2022/10/27 07:20:33;;;;;;;2.30;1.87;;;15.50;99.90;;;;;;4972660;28;20419;-95
2022/10/27 07:23:46;;;;;;;4.47;2.00;;;15.50;99.90;;;;;;4944340;29;20428;-94
2022/10/27 07:26:16;;;;;;;3.93;2.00;;;15.40;99.90;;;;;;4957753;29;20439;-92
2022/10/27 07:28:46;;;;;;;1.70;1.60;;;15.40;99.90;;;;;;4942046;28;20427;-96
2022/10/27 07:31:46;;;;;;;5.10;1.77;;;15.40;99.90;;;;;;5004366;28;20794;-96
2022/10/27 07:34:12;;;;;;;3.87;1.80;;;15.40;99.90;;;;;;4962880;28;20547;-96
2022/10/27 07:36:40;;;;;;;2.70;1.60;;;15.50;99.90;;;;;;5031913;28;20625;-93
2022/10/27 07:39:06;;;;;;;2.67;1.70;;;15.50;99.90;;;;;;5020369;28;20442;-95
2022/10/27 07:41:35;;;;;;;3.70;2.30;;;15.40;99.90;;;;;;5024634;28;20433;-94
2022/10/27 07:44:07;;;;;;;3.10;2.27;;;15.50;99.90;;;;;;5038255;28;20459;-96
2022/10/27 07:46:35;;;;;;;2.03;1.57;;;15.40;99.90;;;;;;5020613;28;20444;-94
2022/10/27 07:49:04;;;;;;;2.03;1.60;;;15.50;99.90;;;;;;5015455;28;20537;-95
2022/10/27 07:51:48;;;;;;;2.23;1.60;;;15.50;99.90;;;;;;5027648;28;20462;-96
2022/10/27 07:55:55;;;;;;;;;;;;;;;;;;;;;
2022/10/27 07:58:27;;;;;;;2.23;1.20;;;15.50;99.90;;;;;;5039215;28;20447;-96
2022/10/27 08:01:02;;;;;;;2.10;1.60;;;15.50;99.90;;;;;;5058388;28;20426;-96
2022/10/27 08:03:57;;;;;;;3.60;1.87;;;15.50;99.90;;;;;;4945554;29;20995;-95
2022/10/27 08:06:24;;;;;;;5.43;2.77;;;15.50;99.90;;;;;;4957600;29;20423;-95
2022/10/27 08:09:59;;;;;;;2.20;1.60;;;15.50;99.90;;;;;;5025690;28;20416;-84
2022/10/27 08:12:30;;;;;;;2.03;1.70;;;15.60;99.90;;;;;;5029220;28;20474;-96
2022/10/27 08:14:59;;;;;;;2.53;1.57;;;15.50;99.90;;;;;;5040018;28;20411;-96
2022/10/27 08:17:31;;;;;;;3.50;1.40;;;15.60;99.90;;;;;;5024013;28;20444;-93
2022/10/27 08:20:20;;;;;;;4.60;1.70;;;15.60;99.90;;;;;;5013588;28;20426;-96
2022/10/27 08:23:11;;;;;;;3.07;1.40;;;15.60;99.90;;;;;;5008793;28;20504;-94
2022/10/27 08:25:37;;;;;;;2.73;1.37;;;15.60;99.90;;;;;;5039269;28;20441;-95
2022/10/27 08:28:03;;;;;;;2.87;1.50;;;15.60;99.90;;;;;;5025125;28;20514;-94
2022/10/27 08:30:31;;;;;;;3.53;1.60;;;15.60;99.90;;;;;;5009723;28;20455;-94
2022/10/27 08:32:59;;;;;;;3.13;1.37;;;15.60;99.90;;;;;;5037128;28;20522;-95
2022/10/27 08:35:27;;;;;;;2.27;1.40;;;15.60;99.90;;;;;;5019718;28;20403;-90
2022/10/27 08:38:13;;;;;;;1.57;1.40;;;15.60;99.90;;;;;;5022829;28;20908;-96
2022/10/27 08:40:58;;;;;;;;;;;;;;;;;;;;;
2022/10/27 08:43:48;;;;;;;4.30;1.63;;;15.70;99.90;;;;;;5004812;28;20439;-95
2022/10/27 08:46:58;;;;;;;3.70;1.50;;;15.70;99.90;;;;;;5006080;28;20495;-94
2022/10/27 08:49:36;;;;;;;2.23;1.37;;;15.70;99.90;;;;;;4957048;28;20463;-94
2022/10/27 08:52:24;;;;;;;1.90;1.53;;;15.70;99.90;;;;;;5012936;28;20465;-95
2022/10/27 08:55:03;;;;;;;1.47;1.37;;;15.70;99.90;;;;;;5040508;28;20926;-96
2022/10/27 08:57:32;;;;;;;4.30;1.30;;;15.70;99.90;;;;;;5034499;28;20439;-95
2022/10/27 09:00:14;;;;;;;3.27;1.87;;;15.80;99.90;;;;;;5036140;28;20556;-91
2022/10/27 09:03:37;;;;;;;6.20;1.60;;;15.80;99.90;;;;;;4952289;28;20481;-96
2022/10/27 09:06:36;;;;;;;3.53;1.67;;;15.80;99.90;;;;;;5030499;28;20931;-91
2022/10/27 09:09:18;;;;;;;2.47;1.37;;;15.80;99.90;;;;;;5018987;28;20556;-96
2022/10/27 09:11:44;;;;;;;2.10;1.47;;;15.80;99.90;;;;;;5019082;28;20464;-95
2022/10/27 09:18:40;;;;;;;4.00;1.80;;;15.90;99.90;;;;;;5060653;22;20916;-71
2022/10/27 09:21:17;;;;;;;2.77;1.30;;;15.90;99.90;;;;;;5033434;28;20922;-71
2022/10/27 09:23:51;;;;;;;2.97;1.57;;;15.90;99.90;;;;;;5014862;28;20412;-71
2022/10/27 09:26:24;;;;;;;3.77;1.73;;;15.90;99.90;;;;;;5032075;28;20442;-71
2022/10/27 09:28:52;;;;;;;4.73;1.47;;;16.00;99.90;;;;;;5015508;28;20439;-71
2022/10/27 09:31:26;;;;;;;2.80;1.73;;;16.00;99.90;;;;;;5033114;28;20590;-71
2022/10/27 09:34:02;;;;;;;4.13;1.50;;;16.00;99.90;;;;;;5015502;28;20794;-71
2022/10/27 09:36:30;;;;;;;5.20;3.40;;;16.00;99.90;;;;;;5020685;28;20969;-71
2022/10/27 09:38:59;;;;;;;2.97;1.90;;;16.00;99.90;;;;;;5038454;28;20487;-71
2022/10/27 09:41:27;;;;;;;2.50;1.40;;;16.00;99.90;;;;;;5005715;28;20426;-71
2022/10/27 09:43:59;;;;;;;2.50;1.80;;;16.10;99.90;;;;;;5039775;28;20911;-71
2022/10/27 09:46:29;;;;;;;3.37;1.20;;;16.10;99.90;;;;;;5038413;28;20439;-71
2022/10/27 09:49:03;;;;;;;3.77;1.60;;;16.10;99.90;;;;;;5006230;28;20438;-71
2022/10/27 09:51:54;;;;;;;5.70;1.80;;;16.10;99.90;;;;;;5021930;28;20449;-71
2022/10/27 09:54:35;;;;;;;3.77;1.60;;;16.20;99.90;;;;;;5014643;28;20807;-71
2022/10/27 09:57:07;;;;;;;3.27;1.50;;;16.20;99.90;;;;;;5021933;28;20403;-71
2022/10/27 09:59:41;;;;;;;1.70;1.37;;;16.20;99.90;;;;;;5039614;28;20406;-71
2022/10/27 10:02:41;;;;;;;2.37;1.53;;;16.20;99.90;;;;;;5038281;28;20420;-71
2022/10/27 10:05:25;;;;;;;2.83;1.40;;;16.20;99.90;;;;;;5013797;28;20549;-70
2022/10/27 10:08:15;;;;;;;2.10;1.60;;;16.30;99.90;;;;;;5041267;28;20470;-70
2022/10/27 10:10:59;;;;;;;2.50;1.70;;;16.30;99.90;;;;;;5058970;28;20442;-70
2022/10/27 10:13:31;;;;;;;3.63;1.70;;;16.30;99.90;;;;;;5059322;28;20468;-70
2022/10/27 10:16:11;;;;;;;2.43;1.53;;;16.30;99.90;;;;;;5059162;28;20407;-70
2022/10/27 10:18:44;;;;;;;4.17;2.00;;;16.30;99.90;;;;;;4992149;28;20455;-70
2022/10/27 10:21:13;;;;;;;1.43;1.30;;;16.40;99.90;;;;;;5039124;28;20976;-70
2022/10/27 10:23:50;;;;;;;3.40;1.60;;;16.40;99.90;;;;;;5039188;28;20905;-70
2022/10/27 10:26:20;;;;;;;3.30;1.70;;;16.40;99.90;;;;;;5021694;28;20412;-70
2022/10/27 10:28:51;;;;;;;3.80;2.20;;;16.40;99.90;;;;;;5021490;28;20533;-70
2022/10/27 10:31:28;;;;;;;2.93;1.77;;;16.50;99.90;;;;;;5021374;28;20542;-70
2022/10/27 10:34:02;;;;;;;2.73;1.90;;;16.50;99.90;;;;;;5021473;28;20487;-70
2022/10/27 10:36:37;;;;;;;1.97;1.50;;;16.50;99.90;;;;;;5021256;28;20490;-70
2022/10/27 10:39:26;;;;;;;2.90;1.63;;;16.50;99.90;;;;;;5021940;28;20441;-70
2022/10/27 10:42:14;;;;;;;3.73;1.57;;;16.50;99.90;;;;;;5005040;28;20410;-70
2022/10/27 10:44:43;;;;;;;3.23;1.23;;;16.60;99.90;;;;;;5021514;28;20393;-70
2022/10/27 10:47:27;;;;;;;4.20;1.50;;;16.60;99.90;;;;;;5036498;28;20913;-70
2022/10/27 10:49:59;;;;;;;2.70;1.33;;;16.60;99.90;;;;;;5018308;28;20773;-71
2022/10/27 10:52:35;;;;;;;3.53;1.67;;;16.60;99.90;;;;;;5035674;28;20500;-70
2022/10/27 10:55:19;;;;;;;6.00;1.87;;;16.60;99.90;;;;;;5018048;28;20467;-70
2022/10/27 10:57:52;;;;;;;4.73;2.13;;;16.60;99.90;;;;;;5017936;28;20458;-70
2022/10/27 11:00:20;;;;;;;2.30;1.80;;;16.70;99.90;;;;;;5035760;28;20444;-70
2022/10/27 11:03:16;;;;;;;2.00;1.40;;;16.70;99.90;;;;;;5017948;28;20412;-70
2022/10/27 11:06:04;;;;;;;3.00;1.60;;;16.70;99.90;;;;;;5035555;28;20465;-71
2022/10/27 11:08:41;;;;;;;2.43;1.57;;;16.70;99.90;;;;;;5035536;28;20807;-70
2022/10/27 11:11:19;;;;;;;2.70;1.87;;;16.70;99.90;;;;;;4985457;28;20574;-71
2022/10/27 11:13:59;;;;;;;3.10;1.60;;;16.80;99.90;;;;;;5017845;28;20490;-70
2022/10/27 11:16:33;;;;;;;2.87;1.83;;;16.80;99.90;;;;;;5018228;28;20917;-70
2022/10/27 11:19:16;;;;;;;2.93;1.80;;;16.80;99.90;;;;;;5018732;28;20463;-70
2022/10/27 11:21:52;;;;;;;6.90;1.87;;;16.80;99.90;;;;;;5035364;28;20418;-70
2022/10/27 11:24:24;;;;;;;2.60;1.60;;;16.80;99.90;;;;;;5017671;28;20408;-70
2022/10/27 11:27:03;;;;;;;2.97;1.60;;;16.80;99.90;;;;;;5035292;28;20409;-70
2022/10/27 11:29:40;;;;;;;3.13;1.80;;;16.90;99.90;;;;;;5001181;28;20460;-70
2022/10/27 11:32:21;;;;;;;4.37;1.70;;;16.90;99.90;;;;;;5018118;28;20471;-70
2022/10/27 11:35:05;;;;;;;3.47;1.83;;;16.90;99.90;;;;;;5000465;28;20448;-70
2022/10/27 11:37:47;;;;;;;4.00;2.10;;;16.90;99.90;;;;;;5035222;28;20502;-70
2022/10/27 11:40:47;;;;;;;3.40;2.13;;;17.00;99.90;;;;;;5054659;28;20466;-71
2022/10/27 11:43:42;;;;;;;3.37;1.80;;;17.00;99.90;;;;;;4997740;28;20455;-70
2022/10/27 11:46:10;;;;;;;5.20;2.40;;;17.00;99.90;;;;;;5014493;28;20492;-70
2022/10/27 11:49:12;;;;;;;4.07;1.83;;;17.00;99.90;;;;;;4996769;28;20856;-73
2022/10/27 11:51:47;;;;;;;3.53;1.80;;;17.00;99.90;;;;;;5036457;28;20448;-73
2022/10/27 11:54:15;;;;;;;2.57;1.60;;;17.00;99.90;;;;;;5020724;28;20908;-74
2022/10/27 11:57:03;;;;;;;2.60;2.17;;;17.10;99.90;;;;;;5036626;28;20388;-74
2022/10/27 11:59:55;;;;;;;2.53;1.90;;;17.10;99.90;;;;;;5036419;28;20453;-74
2022/10/27 12:02:24;;;;;;;2.30;2.10;;;17.10;99.90;;;;;;5036540;28;20468;-74
2022/10/27 12:05:06;;;;;;;3.83;2.17;;;17.10;99.90;;;;;;5036522;28;20423;-74
2022/10/27 12:07:56;;;;;;;2.60;1.83;;;17.10;99.90;;;;;;5019801;28;20456;-74
2022/10/27 12:10:47;;;;;;;4.00;2.33;;;17.20;99.90;;;;;;5053999;28;20478;-74
2022/10/27 12:13:27;;;;;;;5.40;2.10;;;17.20;99.90;;;;;;5053847;28;20444;-74
2022/10/27 12:15:59;;;;;;;3.50;1.90;;;17.20;99.90;;;;;;5020186;28;20431;-74
2022/10/27 12:18:37;;;;;;;4.20;2.37;;;17.20;99.90;;;;;;5000675;28;20471;-74
2022/10/27 12:21:27;;;;;;;5.43;1.80;;;17.20;99.90;;;;;;5013210;28;20987;-74
2022/10/27 12:24:06;;;;;;;3.40;1.80;;;17.20;99.90;;;;;;4974629;28;20911;-74
2022/10/27 12:26:41;;;;;;;2.77;2.07;;;17.30;99.90;;;;;;5035510;28;20450;-74
2022/10/27 12:29:09;;;;;;;2.40;1.87;;;17.30;99.90;;;;;;5036175;28;20451;-74
2022/10/27 12:31:43;;;;;;;5.27;2.37;;;17.30;99.90;;;;;;5053893;28;20890;-74
2022/10/27 12:34:13;;;;;;;5.17;2.10;;;17.30;99.90;;;;;;5019753;28;20758;-74
2022/10/27 12:36:52;;;;;;;3.40;2.20;;;17.30;99.90;;;;;;5019825;28;20415;-74
2022/10/27 12:39:41;;;;;;;4.33;2.03;;;17.30;99.90;;;;;;5035578;28;20832;-74
2022/10/27 12:42:42;;;;;;;2.40;2.00;;;17.40;99.90;;;;;;5033565;28;20417;-74
2022/10/27 12:45:34;;;;;;;3.53;1.97;;;17.40;99.90;;;;;;5015572;28;20422;-74
2022/10/27 12:48:16;;;;;;;2.40;2.20;;;17.40;99.90;;;;;;5023762;28;20463;-74
2022/10/27 12:51:12;;;;;;;4.63;2.07;;;17.40;99.90;;;;;;5047987;28;20478;-74
2022/10/27 12:53:53;;;;;;;3.60;1.93;;;17.40;99.90;;;;;;5053340;28;20966;-74
2022/10/27 12:56:37;;;;;;;3.23;1.93;;;17.40;99.90;;;;;;5053341;28;20401;-72
2022/10/27 12:59:44;;;;;;;5.43;2.10;;;17.40;99.90;;;;;;5000383;28;20448;-74
2022/10/27 13:02:12;;;;;;;4.27;2.03;;;17.40;99.90;;;;;;5015638;28;20407;-74
2022/10/27 13:05:01;;;;;;;3.00;2.07;;;17.40;99.90;;;;;;5025534;28;20872;-74
2022/10/27 13:08:07;;;;;;;3.53;2.17;;;17.50;99.90;;;;;;5040322;28;20548;-74
2022/10/27 13:10:56;;;;;;;5.53;2.30;;;17.50;99.90;;;;;;4991519;28;20427;-74
2022/10/27 13:13:42;;;;;;;3.47;2.10;;;17.50;99.90;;;;;;4998736;28;20437;-74
2022/10/27 13:16:23;;;;;;;4.03;2.57;;;17.50;99.90;;;;;;5015668;28;20421;-74
2022/10/27 13:19:02;;;;;;;5.40;2.70;;;17.50;99.90;;;;;;5025066;28;20724;-74
2022/10/27 13:21:45;;;;;;;4.80;2.47;;;17.50;99.90;;;;;;5033046;28;20439;-74
2022/10/27 13:24:49;;;;;;;3.23;2.03;;;17.50;99.90;;;;;;5011454;28;20930;-74
2022/10/27 13:27:41;;;;;;;2.80;2.27;;;17.60;99.90;;;;;;5016217;28;20949;-74
2022/10/27 13:30:23;;;;;;;3.93;1.77;;;17.50;99.90;;;;;;5018636;28;20452;-74
2022/10/27 13:32:53;;;;;;;3.27;2.43;;;17.60;99.90;;;;;;4978512;28;20994;-74
2022/10/27 13:35:32;;;;;;;5.73;2.23;;;17.60;99.90;;;;;;5036376;28;20422;-74
2022/10/27 13:38:21;;;;;;;4.10;2.27;;;17.60;99.90;;;;;;5014386;28;20428;-74
2022/10/27 13:40:48;;;;;;;2.27;1.93;;;17.60;99.90;;;;;;4996698;28;20422;-74
2022/10/27 13:43:21;;;;;;;4.60;2.60;;;17.60;99.90;;;;;;5030416;28;20889;-74
2022/10/27 13:45:51;;;;;;;2.50;2.20;;;17.60;99.90;;;;;;4994923;28;20899;-74
2022/10/27 13:48:20;;;;;;;4.50;2.37;;;17.60;99.90;;;;;;5012319;28;20457;-74
2022/10/27 13:50:54;;;;;;;4.30;2.50;;;17.60;99.90;;;;;;5015966;28;20476;-74
2022/10/27 13:53:21;;;;;;;3.83;2.53;;;17.70;99.90;;;;;;5017562;28;20439;-74